sensor_id;sensor_type;location;lat;lon;timestamp;P1;durP1;ratioP1;P2;durP2;ratioP2
20296;SDS011;10307;40.100;18.336;2022-12-24T00:00:29;130.18;;;62.90;;
20296;SDS011;10307;40.100;18.336;2022-12-24T00:02:56;146.95;;;69.43;;
20296;SDS011;10307;40.100;18.336;2022-12-24T00:05:23;144.60;;;64.00;;
20296;SDS011;10307;40.100;18.336;2022-12-24T00:07:49;110.38;;;51.45;;
20296;SDS011;10307;40.100;18.336;2022-12-24T00:10:15;85.47;;;44.50;;
20296;SDS011;10307;40.100;18.336;2022-12-24T00:12:42;71.32;;;40.90;;
20296;SDS011;10307;40.100;18.336;2022-12-24T00:15:08;80.15;;;40.78;;
20296;SDS011;10307;40.100;18.336;2022-12-24T00:17:35;72.75;;;40.78;;
20296;SDS011;10307;40.100;18.336;2022-12-24T00:20:01;75.78;;;41.63;;
20296;SDS011;10307;40.100;18.336;2022-12-24T00:22:29;91.85;;;42.58;;
20296;SDS011;10307;40.100;18.336;2022-12-24T00:24:55;81.70;;;42.90;;
20296;SDS011;10307;40.100;18.336;2022-12-24T00:27:21;71.45;;;41.38;;
20296;SDS011;10307;40.100;18.336;2022-12-24T00:29:48;79.82;;;40.85;;
20296;SDS011;10307;40.100;18.336;2022-12-24T00:32:15;75.72;;;40.50;;
20296;SDS011;10307;40.100;18.336;2022-12-24T00:34:41;77.85;;;40.40;;
20296;SDS011;10307;40.100;18.336;2022-12-24T00:37:07;74.13;;;39.08;;
20296;SDS011;10307;40.100;18.336;2022-12-24T00:39:34;73.07;;;40.40;;
20296;SDS011;10307;40.100;18.336;2022-12-24T00:42:00;99.90;;;47.17;;
20296;SDS011;10307;40.100;18.336;2022-12-24T00:44:26;99.43;;;45.30;;
20296;SDS011;10307;40.100;18.336;2022-12-24T00:46:52;85.25;;;44.90;;
20296;SDS011;10307;40.100;18.336;2022-12-24T00:49:19;72.30;;;42.15;;
20296;SDS011;10307;40.100;18.336;2022-12-24T00:51:45;69.82;;;39.78;;
20296;SDS011;10307;40.100;18.336;2022-12-24T00:54:11;76.60;;;41.50;;
20296;SDS011;10307;40.100;18.336;2022-12-24T00:56:39;80.93;;;42.50;;
20296;SDS011;10307;40.100;18.336;2022-12-24T00:59:05;84.63;;;42.20;;
20296;SDS011;10307;40.100;18.336;2022-12-24T01:01:31;91.97;;;46.20;;
20296;SDS011;10307;40.100;18.336;2022-12-24T01:04:00;102.60;;;49.30;;
20296;SDS011;10307;40.100;18.336;2022-12-24T01:06:45;87.53;;;43.40;;
20296;SDS011;10307;40.100;18.336;2022-12-24T01:09:11;85.68;;;42.88;;
20296;SDS011;10307;40.100;18.336;2022-12-24T01:11:37;85.65;;;43.90;;
20296;SDS011;10307;40.100;18.336;2022-12-24T01:14:04;80.45;;;44.40;;
20296;SDS011;10307;40.100;18.336;2022-12-24T01:16:30;82.78;;;43.50;;
20296;SDS011;10307;40.100;18.336;2022-12-24T01:18:56;80.63;;;41.40;;
20296;SDS011;10307;40.100;18.336;2022-12-24T01:21:23;75.13;;;40.65;;
20296;SDS011;10307;40.100;18.336;2022-12-24T01:23:49;81.28;;;42.72;;
20296;SDS011;10307;40.100;18.336;2022-12-24T01:26:15;71.10;;;38.13;;
20296;SDS011;10307;40.100;18.336;2022-12-24T01:28:41;74.88;;;35.58;;
20296;SDS011;10307;40.100;18.336;2022-12-24T01:31:12;69.18;;;36.45;;
20296;SDS011;10307;40.100;18.336;2022-12-24T01:33:41;69.70;;;36.25;;
20296;SDS011;10307;40.100;18.336;2022-12-24T01:36:08;64.32;;;35.85;;
20296;SDS011;10307;40.100;18.336;2022-12-24T01:38:35;65.20;;;35.22;;
20296;SDS011;10307;40.100;18.336;2022-12-24T01:41:02;63.58;;;32.42;;
20296;SDS011;10307;40.100;18.336;2022-12-24T01:43:46;57.40;;;31.15;;
20296;SDS011;10307;40.100;18.336;2022-12-24T01:46:17;55.88;;;30.50;;
20296;SDS011;10307;40.100;18.336;2022-12-24T01:48:52;61.47;;;32.10;;
20296;SDS011;10307;40.100;18.336;2022-12-24T01:51:34;65.47;;;29.95;;
20296;SDS011;10307;40.100;18.336;2022-12-24T01:54:15;50.55;;;28.90;;
20296;SDS011;10307;40.100;18.336;2022-12-24T01:56:44;58.08;;;30.15;;
20296;SDS011;10307;40.100;18.336;2022-12-24T01:59:14;58.42;;;31.40;;
20296;SDS011;10307;40.100;18.336;2022-12-24T02:01:43;53.20;;;29.92;;
20296;SDS011;10307;40.100;18.336;2022-12-24T02:04:12;55.15;;;30.33;;
20296;SDS011;10307;40.100;18.336;2022-12-24T02:06:58;54.50;;;29.40;;
20296;SDS011;10307;40.100;18.336;2022-12-24T02:09:25;44.38;;;28.00;;
20296;SDS011;10307;40.100;18.336;2022-12-24T02:11:52;61.45;;;30.10;;
20296;SDS011;10307;40.100;18.336;2022-12-24T02:14:19;56.15;;;28.27;;
20296;SDS011;10307;40.100;18.336;2022-12-24T02:22:59;61.38;;;31.60;;
20296;SDS011;10307;40.100;18.336;2022-12-24T02:31:49;62.38;;;31.77;;
20296;SDS011;10307;40.100;18.336;2022-12-24T02:34:38;51.95;;;29.65;;
20296;SDS011;10307;40.100;18.336;2022-12-24T02:37:30;57.85;;;30.35;;
20296;SDS011;10307;40.100;18.336;2022-12-24T02:40:14;52.05;;;29.55;;
20296;SDS011;10307;40.100;18.336;2022-12-24T02:42:45;56.17;;;30.98;;
20296;SDS011;10307;40.100;18.336;2022-12-24T02:45:22;59.70;;;32.47;;
20296;SDS011;10307;40.100;18.336;2022-12-24T02:47:54;63.72;;;32.33;;
20296;SDS011;10307;40.100;18.336;2022-12-24T02:50:21;49.67;;;30.70;;
20296;SDS011;10307;40.100;18.336;2022-12-24T02:52:48;52.20;;;29.02;;
20296;SDS011;10307;40.100;18.336;2022-12-24T03:00:44;51.08;;;29.25;;
20296;SDS011;10307;40.100;18.336;2022-12-24T03:03:48;57.53;;;31.30;;
20296;SDS011;10307;40.100;18.336;2022-12-24T03:07:49;58.13;;;30.38;;
20296;SDS011;10307;40.100;18.336;2022-12-24T03:12:35;48.38;;;23.25;;
20296;SDS011;10307;40.100;18.336;2022-12-24T03:15:06;49.35;;;23.40;;
20296;SDS011;10307;40.100;18.336;2022-12-24T03:17:35;47.13;;;26.58;;
20296;SDS011;10307;40.100;18.336;2022-12-24T03:20:04;53.10;;;25.55;;
20296;SDS011;10307;40.100;18.336;2022-12-24T03:22:32;52.00;;;23.58;;
20296;SDS011;10307;40.100;18.336;2022-12-24T03:24:59;50.05;;;25.42;;
20296;SDS011;10307;40.100;18.336;2022-12-24T03:27:27;51.85;;;23.27;;
20296;SDS011;10307;40.100;18.336;2022-12-24T03:29:55;44.83;;;22.80;;
20296;SDS011;10307;40.100;18.336;2022-12-24T03:32:23;36.63;;;22.58;;
20296;SDS011;10307;40.100;18.336;2022-12-24T03:34:53;41.38;;;22.30;;
20296;SDS011;10307;40.100;18.336;2022-12-24T03:37:21;40.67;;;22.63;;
20296;SDS011;10307;40.100;18.336;2022-12-24T03:39:48;43.15;;;22.00;;
20296;SDS011;10307;40.100;18.336;2022-12-24T03:42:14;42.60;;;21.33;;
20296;SDS011;10307;40.100;18.336;2022-12-24T03:44:41;38.17;;;21.85;;
20296;SDS011;10307;40.100;18.336;2022-12-24T03:47:07;38.13;;;22.05;;
20296;SDS011;10307;40.100;18.336;2022-12-24T03:49:33;39.05;;;22.58;;
20296;SDS011;10307;40.100;18.336;2022-12-24T03:51:59;41.70;;;21.70;;
20296;SDS011;10307;40.100;18.336;2022-12-24T03:54:26;35.88;;;21.90;;
20296;SDS011;10307;40.100;18.336;2022-12-24T03:56:52;46.40;;;22.33;;
20296;SDS011;10307;40.100;18.336;2022-12-24T03:59:18;40.80;;;21.83;;
20296;SDS011;10307;40.100;18.336;2022-12-24T04:01:44;38.88;;;21.90;;
20296;SDS011;10307;40.100;18.336;2022-12-24T04:04:11;40.10;;;21.55;;
20296;SDS011;10307;40.100;18.336;2022-12-24T04:06:37;32.63;;;20.92;;
20296;SDS011;10307;40.100;18.336;2022-12-24T04:09:03;37.90;;;21.40;;
20296;SDS011;10307;40.100;18.336;2022-12-24T04:11:30;39.00;;;21.88;;
20296;SDS011;10307;40.100;18.336;2022-12-24T04:13:57;38.80;;;21.55;;
20296;SDS011;10307;40.100;18.336;2022-12-24T04:16:24;37.08;;;22.63;;
20296;SDS011;10307;40.100;18.336;2022-12-24T04:18:50;43.05;;;23.75;;
20296;SDS011;10307;40.100;18.336;2022-12-24T04:21:16;38.50;;;22.55;;
20296;SDS011;10307;40.100;18.336;2022-12-24T04:23:43;42.95;;;23.23;;
20296;SDS011;10307;40.100;18.336;2022-12-24T04:26:10;36.78;;;21.02;;
20296;SDS011;10307;40.100;18.336;2022-12-24T04:28:37;37.45;;;20.42;;
20296;SDS011;10307;40.100;18.336;2022-12-24T04:31:05;35.78;;;20.58;;
20296;SDS011;10307;40.100;18.336;2022-12-24T04:33:34;36.85;;;23.00;;
20296;SDS011;10307;40.100;18.336;2022-12-24T04:36:02;35.45;;;22.38;;
20296;SDS011;10307;40.100;18.336;2022-12-24T04:38:30;39.17;;;24.38;;
20296;SDS011;10307;40.100;18.336;2022-12-24T04:41:01;44.00;;;22.80;;
20296;SDS011;10307;40.100;18.336;2022-12-24T04:43:38;46.33;;;27.20;;
20296;SDS011;10307;40.100;18.336;2022-12-24T04:48:32;43.10;;;26.83;;
20296;SDS011;10307;40.100;18.336;2022-12-24T04:51:02;41.85;;;24.38;;
20296;SDS011;10307;40.100;18.336;2022-12-24T04:53:30;39.87;;;24.17;;
20296;SDS011;10307;40.100;18.336;2022-12-24T04:55:57;40.33;;;23.58;;
20296;SDS011;10307;40.100;18.336;2022-12-24T04:58:23;42.63;;;23.77;;
20296;SDS011;10307;40.100;18.336;2022-12-24T05:00:50;37.92;;;22.65;;
20296;SDS011;10307;40.100;18.336;2022-12-24T05:03:17;36.28;;;22.38;;
20296;SDS011;10307;40.100;18.336;2022-12-24T05:05:43;36.88;;;22.48;;
20296;SDS011;10307;40.100;18.336;2022-12-24T05:08:09;37.63;;;22.15;;
20296;SDS011;10307;40.100;18.336;2022-12-24T05:10:35;33.45;;;21.70;;
20296;SDS011;10307;40.100;18.336;2022-12-24T05:13:02;36.28;;;22.60;;
20296;SDS011;10307;40.100;18.336;2022-12-24T05:15:28;35.63;;;20.35;;
20296;SDS011;10307;40.100;18.336;2022-12-24T05:17:54;37.42;;;21.38;;
20296;SDS011;10307;40.100;18.336;2022-12-24T05:20:23;33.28;;;19.38;;
20296;SDS011;10307;40.100;18.336;2022-12-24T05:22:49;31.02;;;20.17;;
20296;SDS011;10307;40.100;18.336;2022-12-24T05:25:35;36.13;;;20.75;;
20296;SDS011;10307;40.100;18.336;2022-12-24T05:28:22;35.17;;;21.52;;
20296;SDS011;10307;40.100;18.336;2022-12-24T05:30:49;32.40;;;22.35;;
20296;SDS011;10307;40.100;18.336;2022-12-24T05:33:15;36.95;;;22.80;;
20296;SDS011;10307;40.100;18.336;2022-12-24T05:35:42;36.70;;;22.80;;
20296;SDS011;10307;40.100;18.336;2022-12-24T05:38:08;41.97;;;25.60;;
20296;SDS011;10307;40.100;18.336;2022-12-24T05:40:34;148.18;;;59.13;;
20296;SDS011;10307;40.100;18.336;2022-12-24T05:43:00;65.47;;;35.08;;
20296;SDS011;10307;40.100;18.336;2022-12-24T05:45:27;57.65;;;31.60;;
20296;SDS011;10307;40.100;18.336;2022-12-24T05:47:53;49.58;;;28.95;;
20296;SDS011;10307;40.100;18.336;2022-12-24T05:50:20;49.97;;;28.65;;
20296;SDS011;10307;40.100;18.336;2022-12-24T05:52:46;54.88;;;31.05;;
20296;SDS011;10307;40.100;18.336;2022-12-24T05:55:12;50.70;;;30.88;;
20296;SDS011;10307;40.100;18.336;2022-12-24T05:57:39;41.33;;;24.98;;
20296;SDS011;10307;40.100;18.336;2022-12-24T06:00:06;39.20;;;23.38;;
20296;SDS011;10307;40.100;18.336;2022-12-24T06:02:37;34.47;;;21.17;;
20296;SDS011;10307;40.100;18.336;2022-12-24T06:05:04;38.38;;;22.80;;
20296;SDS011;10307;40.100;18.336;2022-12-24T06:07:30;35.70;;;22.98;;
20296;SDS011;10307;40.100;18.336;2022-12-24T06:09:56;33.95;;;20.90;;
20296;SDS011;10307;40.100;18.336;2022-12-24T06:12:23;35.80;;;20.92;;
20296;SDS011;10307;40.100;18.336;2022-12-24T06:14:49;31.92;;;19.70;;
20296;SDS011;10307;40.100;18.336;2022-12-24T06:17:15;34.42;;;20.38;;
20296;SDS011;10307;40.100;18.336;2022-12-24T06:19:42;31.55;;;20.30;;
20296;SDS011;10307;40.100;18.336;2022-12-24T06:22:08;33.03;;;20.00;;
20296;SDS011;10307;40.100;18.336;2022-12-24T06:24:35;32.42;;;21.17;;
20296;SDS011;10307;40.100;18.336;2022-12-24T06:27:01;35.60;;;22.48;;
20296;SDS011;10307;40.100;18.336;2022-12-24T06:29:27;35.28;;;22.52;;
20296;SDS011;10307;40.100;18.336;2022-12-24T06:31:53;33.33;;;22.23;;
20296;SDS011;10307;40.100;18.336;2022-12-24T06:34:19;34.95;;;21.63;;
20296;SDS011;10307;40.100;18.336;2022-12-24T06:36:46;30.90;;;20.00;;
20296;SDS011;10307;40.100;18.336;2022-12-24T06:39:12;31.42;;;20.48;;
20296;SDS011;10307;40.100;18.336;2022-12-24T06:41:38;33.65;;;20.48;;
20296;SDS011;10307;40.100;18.336;2022-12-24T06:44:04;27.20;;;19.13;;
20296;SDS011;10307;40.100;18.336;2022-12-24T06:46:31;32.33;;;19.88;;
20296;SDS011;10307;40.100;18.336;2022-12-24T06:48:57;29.65;;;18.55;;
20296;SDS011;10307;40.100;18.336;2022-12-24T06:51:25;31.00;;;18.95;;
20296;SDS011;10307;40.100;18.336;2022-12-24T06:53:51;31.42;;;20.00;;
20296;SDS011;10307;40.100;18.336;2022-12-24T06:56:18;39.95;;;22.83;;
20296;SDS011;10307;40.100;18.336;2022-12-24T06:58:45;41.70;;;25.02;;
20296;SDS011;10307;40.100;18.336;2022-12-24T07:01:13;39.90;;;25.70;;
20296;SDS011;10307;40.100;18.336;2022-12-24T07:03:40;40.53;;;24.48;;
20296;SDS011;10307;40.100;18.336;2022-12-24T07:06:10;40.30;;;24.63;;
20296;SDS011;10307;40.100;18.336;2022-12-24T07:08:48;39.90;;;24.10;;
20296;SDS011;10307;40.100;18.336;2022-12-24T07:11:15;43.33;;;25.83;;
20296;SDS011;10307;40.100;18.336;2022-12-24T07:13:42;43.60;;;26.90;;
20296;SDS011;10307;40.100;18.336;2022-12-24T07:16:08;38.58;;;25.35;;
20296;SDS011;10307;40.100;18.336;2022-12-24T07:18:35;37.00;;;26.02;;
20296;SDS011;10307;40.100;18.336;2022-12-24T07:21:02;37.25;;;25.77;;
20296;SDS011;10307;40.100;18.336;2022-12-24T07:23:29;35.80;;;24.42;;
20296;SDS011;10307;40.100;18.336;2022-12-24T07:25:59;39.70;;;24.85;;
20296;SDS011;10307;40.100;18.336;2022-12-24T07:28:27;39.78;;;25.98;;
20296;SDS011;10307;40.100;18.336;2022-12-24T07:30:55;42.70;;;27.10;;
20296;SDS011;10307;40.100;18.336;2022-12-24T07:33:22;47.22;;;28.38;;
20296;SDS011;10307;40.100;18.336;2022-12-24T07:36:00;41.33;;;24.67;;
20296;SDS011;10307;40.100;18.336;2022-12-24T07:38:28;45.05;;;28.17;;
20296;SDS011;10307;40.100;18.336;2022-12-24T07:40:55;44.95;;;27.02;;
20296;SDS011;10307;40.100;18.336;2022-12-24T07:43:22;46.83;;;27.08;;
20296;SDS011;10307;40.100;18.336;2022-12-24T07:45:49;42.13;;;27.08;;
20296;SDS011;10307;40.100;18.336;2022-12-24T07:48:15;47.90;;;27.73;;
20296;SDS011;10307;40.100;18.336;2022-12-24T07:50:42;43.55;;;28.20;;
20296;SDS011;10307;40.100;18.336;2022-12-24T07:53:08;38.55;;;25.80;;
20296;SDS011;10307;40.100;18.336;2022-12-24T07:55:35;37.30;;;24.35;;
20296;SDS011;10307;40.100;18.336;2022-12-24T07:58:01;43.05;;;27.27;;
20296;SDS011;10307;40.100;18.336;2022-12-24T08:00:27;60.35;;;35.83;;
20296;SDS011;10307;40.100;18.336;2022-12-24T08:02:54;55.17;;;35.30;;
20296;SDS011;10307;40.100;18.336;2022-12-24T08:05:20;57.47;;;35.42;;
20296;SDS011;10307;40.100;18.336;2022-12-24T08:07:46;53.20;;;37.20;;
20296;SDS011;10307;40.100;18.336;2022-12-24T08:10:12;57.42;;;36.40;;
20296;SDS011;10307;40.100;18.336;2022-12-24T08:12:39;59.75;;;37.13;;
20296;SDS011;10307;40.100;18.336;2022-12-24T08:15:05;56.88;;;37.97;;
20296;SDS011;10307;40.100;18.336;2022-12-24T08:17:32;54.00;;;36.25;;
20296;SDS011;10307;40.100;18.336;2022-12-24T08:19:58;57.30;;;36.30;;
20296;SDS011;10307;40.100;18.336;2022-12-24T08:22:24;53.63;;;35.97;;
20296;SDS011;10307;40.100;18.336;2022-12-24T08:24:50;62.80;;;39.72;;
20296;SDS011;10307;40.100;18.336;2022-12-24T08:27:17;58.95;;;39.05;;
20296;SDS011;10307;40.100;18.336;2022-12-24T08:29:43;59.58;;;38.13;;
20296;SDS011;10307;40.100;18.336;2022-12-24T08:32:09;56.55;;;36.33;;
20296;SDS011;10307;40.100;18.336;2022-12-24T08:34:35;59.97;;;40.63;;
20296;SDS011;10307;40.100;18.336;2022-12-24T08:37:02;64.60;;;40.03;;
20296;SDS011;10307;40.100;18.336;2022-12-24T08:39:28;59.53;;;39.53;;
20296;SDS011;10307;40.100;18.336;2022-12-24T08:41:58;61.15;;;38.60;;
20296;SDS011;10307;40.100;18.336;2022-12-24T08:44:25;60.67;;;39.38;;
20296;SDS011;10307;40.100;18.336;2022-12-24T08:46:56;53.88;;;36.88;;
20296;SDS011;10307;40.100;18.336;2022-12-24T08:49:22;55.85;;;36.85;;
20296;SDS011;10307;40.100;18.336;2022-12-24T08:51:51;54.38;;;37.30;;
20296;SDS011;10307;40.100;18.336;2022-12-24T08:54:17;56.92;;;37.22;;
20296;SDS011;10307;40.100;18.336;2022-12-24T08:56:44;59.13;;;35.58;;
20296;SDS011;10307;40.100;18.336;2022-12-24T08:59:10;58.80;;;37.53;;
20296;SDS011;10307;40.100;18.336;2022-12-24T09:01:37;62.17;;;38.85;;
20296;SDS011;10307;40.100;18.336;2022-12-24T09:04:03;67.07;;;41.65;;
20296;SDS011;10307;40.100;18.336;2022-12-24T09:06:30;60.60;;;41.00;;
20296;SDS011;10307;40.100;18.336;2022-12-24T09:08:57;64.70;;;43.65;;
20296;SDS011;10307;40.100;18.336;2022-12-24T09:11:24;62.72;;;41.10;;
20296;SDS011;10307;40.100;18.336;2022-12-24T09:13:50;61.50;;;38.78;;
20296;SDS011;10307;40.100;18.336;2022-12-24T09:16:16;56.10;;;35.97;;
20296;SDS011;10307;40.100;18.336;2022-12-24T09:18:42;52.00;;;33.67;;
20296;SDS011;10307;40.100;18.336;2022-12-24T09:21:10;50.08;;;32.35;;
20296;SDS011;10307;40.100;18.336;2022-12-24T09:23:42;45.65;;;29.02;;
20296;SDS011;10307;40.100;18.336;2022-12-24T09:26:14;40.33;;;24.00;;
20296;SDS011;10307;40.100;18.336;2022-12-24T09:28:49;39.92;;;24.25;;
20296;SDS011;10307;40.100;18.336;2022-12-24T09:31:16;36.72;;;24.45;;
20296;SDS011;10307;40.100;18.336;2022-12-24T09:33:43;33.35;;;21.15;;
20296;SDS011;10307;40.100;18.336;2022-12-24T09:36:12;30.67;;;19.27;;
20296;SDS011;10307;40.100;18.336;2022-12-24T09:38:39;23.52;;;15.13;;
20296;SDS011;10307;40.100;18.336;2022-12-24T09:41:25;24.63;;;14.82;;
20296;SDS011;10307;40.100;18.336;2022-12-24T09:44:17;23.27;;;13.35;;
20296;SDS011;10307;40.100;18.336;2022-12-24T09:47:02;23.10;;;13.23;;
20296;SDS011;10307;40.100;18.336;2022-12-24T09:49:54;22.15;;;12.88;;
20296;SDS011;10307;40.100;18.336;2022-12-24T09:52:34;24.42;;;13.18;;
20296;SDS011;10307;40.100;18.336;2022-12-24T09:55:11;21.08;;;13.60;;
20296;SDS011;10307;40.100;18.336;2022-12-24T09:57:45;21.30;;;12.73;;
20296;SDS011;10307;40.100;18.336;2022-12-24T10:00:21;17.38;;;10.20;;
20296;SDS011;10307;40.100;18.336;2022-12-24T10:02:55;15.53;;;8.90;;
20296;SDS011;10307;40.100;18.336;2022-12-24T10:05:37;14.45;;;8.07;;
20296;SDS011;10307;40.100;18.336;2022-12-24T10:08:16;13.10;;;6.45;;
20296;SDS011;10307;40.100;18.336;2022-12-24T10:11:05;15.02;;;8.73;;
20296;SDS011;10307;40.100;18.336;2022-12-24T10:13:53;16.83;;;9.77;;
20296;SDS011;10307;40.100;18.336;2022-12-24T10:28:04;32.17;;;19.60;;
20296;SDS011;10307;40.100;18.336;2022-12-24T10:30:46;71.22;;;41.28;;
20296;SDS011;10307;40.100;18.336;2022-12-24T10:33:24;71.07;;;49.83;;
20296;SDS011;10307;40.100;18.336;2022-12-24T10:35:57;63.63;;;42.67;;
20296;SDS011;10307;40.100;18.336;2022-12-24T10:38:23;80.18;;;52.10;;
20296;SDS011;10307;40.100;18.336;2022-12-24T10:40:54;59.55;;;39.78;;
20296;SDS011;10307;40.100;18.336;2022-12-24T10:43:24;40.35;;;29.17;;
20296;SDS011;10307;40.100;18.336;2022-12-24T10:45:56;30.25;;;24.58;;
20296;SDS011;10307;40.100;18.336;2022-12-24T10:48:31;40.40;;;30.58;;
20296;SDS011;10307;40.100;18.336;2022-12-24T10:51:10;21.92;;;15.13;;
20296;SDS011;10307;40.100;18.336;2022-12-24T10:53:45;23.30;;;17.35;;
20296;SDS011;10307;40.100;18.336;2022-12-24T10:56:17;14.05;;;9.45;;
20296;SDS011;10307;40.100;18.336;2022-12-24T10:58:49;11.90;;;6.53;;
20296;SDS011;10307;40.100;18.336;2022-12-24T11:01:19;16.00;;;9.63;;
20296;SDS011;10307;40.100;18.336;2022-12-24T11:04:05;14.55;;;8.95;;
20296;SDS011;10307;40.100;18.336;2022-12-24T11:06:52;17.08;;;12.52;;
20296;SDS011;10307;40.100;18.336;2022-12-24T11:09:33;18.70;;;13.38;;
20296;SDS011;10307;40.100;18.336;2022-12-24T11:12:20;21.60;;;15.10;;
20296;SDS011;10307;40.100;18.336;2022-12-24T11:14:58;27.55;;;19.52;;
20296;SDS011;10307;40.100;18.336;2022-12-24T11:17:55;20.55;;;12.65;;
20296;SDS011;10307;40.100;18.336;2022-12-24T11:20:28;17.98;;;8.25;;
20296;SDS011;10307;40.100;18.336;2022-12-24T11:22:56;17.73;;;8.53;;
20296;SDS011;10307;40.100;18.336;2022-12-24T11:25:27;19.35;;;11.57;;
20296;SDS011;10307;40.100;18.336;2022-12-24T11:27:56;21.48;;;12.57;;
20296;SDS011;10307;40.100;18.336;2022-12-24T11:30:37;23.38;;;12.68;;
20296;SDS011;10307;40.100;18.336;2022-12-24T11:35:30;10.93;;;5.90;;
20296;SDS011;10307;40.100;18.336;2022-12-24T11:40:27;12.57;;;6.05;;
20296;SDS011;10307;40.100;18.336;2022-12-24T11:43:10;15.65;;;5.55;;
20296;SDS011;10307;40.100;18.336;2022-12-24T11:45:50;11.27;;;6.40;;
20296;SDS011;10307;40.100;18.336;2022-12-24T11:48:31;15.63;;;8.18;;
20296;SDS011;10307;40.100;18.336;2022-12-24T11:51:03;18.58;;;11.48;;
20296;SDS011;10307;40.100;18.336;2022-12-24T11:53:40;17.65;;;12.23;;
20296;SDS011;10307;40.100;18.336;2022-12-24T11:56:16;25.35;;;14.82;;
20296;SDS011;10307;40.100;18.336;2022-12-24T11:58:54;21.98;;;12.20;;
20296;SDS011;10307;40.100;18.336;2022-12-24T12:04:17;11.30;;;6.10;;
20296;SDS011;10307;40.100;18.336;2022-12-24T12:06:49;12.05;;;7.47;;
20296;SDS011;10307;40.100;18.336;2022-12-24T12:09:27;17.30;;;8.65;;
20296;SDS011;10307;40.100;18.336;2022-12-24T12:11:58;18.13;;;10.85;;
20296;SDS011;10307;40.100;18.336;2022-12-24T12:14:37;15.60;;;9.40;;
20296;SDS011;10307;40.100;18.336;2022-12-24T12:20:15;12.10;;;5.65;;
20296;SDS011;10307;40.100;18.336;2022-12-24T12:28:17;9.98;;;4.82;;
20296;SDS011;10307;40.100;18.336;2022-12-24T12:31:02;11.55;;;5.03;;
20296;SDS011;10307;40.100;18.336;2022-12-24T12:36:09;19.02;;;12.55;;
20296;SDS011;10307;40.100;18.336;2022-12-24T12:38:37;16.20;;;8.43;;
20296;SDS011;10307;40.100;18.336;2022-12-24T12:41:24;11.38;;;5.15;;
20296;SDS011;10307;40.100;18.336;2022-12-24T12:47:01;11.90;;;4.43;;
20296;SDS011;10307;40.100;18.336;2022-12-24T12:58:33;12.93;;;5.95;;
20296;SDS011;10307;40.100;18.336;2022-12-24T13:01:35;12.38;;;6.60;;
20296;SDS011;10307;40.100;18.336;2022-12-24T13:07:24;18.13;;;8.70;;
20296;SDS011;10307;40.100;18.336;2022-12-24T13:12:40;15.30;;;6.47;;
20296;SDS011;10307;40.100;18.336;2022-12-24T13:21:30;11.45;;;5.20;;
20296;SDS011;10307;40.100;18.336;2022-12-24T13:24:03;13.88;;;4.68;;
20296;SDS011;10307;40.100;18.336;2022-12-24T13:26:39;9.60;;;4.43;;
20296;SDS011;10307;40.100;18.336;2022-12-24T13:34:47;16.52;;;10.05;;
20296;SDS011;10307;40.100;18.336;2022-12-24T13:42:51;14.80;;;7.47;;
20296;SDS011;10307;40.100;18.336;2022-12-24T13:58:40;13.23;;;6.55;;
20296;SDS011;10307;40.100;18.336;2022-12-24T14:01:15;16.10;;;5.38;;
20296;SDS011;10307;40.100;18.336;2022-12-24T14:03:48;10.63;;;5.15;;
20296;SDS011;10307;40.100;18.336;2022-12-24T14:06:26;10.13;;;4.80;;
20296;SDS011;10307;40.100;18.336;2022-12-24T14:09:09;9.07;;;4.40;;
20296;SDS011;10307;40.100;18.336;2022-12-24T14:12:44;9.75;;;4.47;;
20296;SDS011;10307;40.100;18.336;2022-12-24T14:14:35;11.02;;;5.15;;
20296;SDS011;10307;40.100;18.336;2022-12-24T14:19:50;20.45;;;7.10;;
20296;SDS011;10307;40.100;18.336;2022-12-24T14:22:31;14.38;;;7.88;;
20296;SDS011;10307;40.100;18.336;2022-12-24T14:27:57;12.95;;;6.03;;
20296;SDS011;10307;40.100;18.336;2022-12-24T14:30:29;12.48;;;6.32;;
20296;SDS011;10307;40.100;18.336;2022-12-24T14:32:56;16.90;;;7.50;;
20296;SDS011;10307;40.100;18.336;2022-12-24T14:35:24;14.35;;;7.80;;
20296;SDS011;10307;40.100;18.336;2022-12-24T14:37:58;10.68;;;6.38;;
20296;SDS011;10307;40.100;18.336;2022-12-24T14:40:33;17.52;;;7.35;;
20296;SDS011;10307;40.100;18.336;2022-12-24T14:46:28;12.75;;;8.02;;
20296;SDS011;10307;40.100;18.336;2022-12-24T14:49:06;15.93;;;8.95;;
20296;SDS011;10307;40.100;18.336;2022-12-24T14:52:47;18.25;;;10.05;;
20296;SDS011;10307;40.100;18.336;2022-12-24T14:54:54;16.42;;;9.80;;
20296;SDS011;10307;40.100;18.336;2022-12-24T14:57:22;19.52;;;10.15;;
20296;SDS011;10307;40.100;18.336;2022-12-24T15:05:06;20.90;;;11.43;;
20296;SDS011;10307;40.100;18.336;2022-12-24T15:07:36;22.55;;;12.68;;
20296;SDS011;10307;40.100;18.336;2022-12-24T15:10:42;22.65;;;13.18;;
20296;SDS011;10307;40.100;18.336;2022-12-24T15:13:06;27.48;;;16.63;;
20296;SDS011;10307;40.100;18.336;2022-12-24T15:15:55;26.58;;;15.07;;
20296;SDS011;10307;40.100;18.336;2022-12-24T15:18:26;25.63;;;15.18;;
20296;SDS011;10307;40.100;18.336;2022-12-24T15:20:55;23.25;;;15.68;;
20296;SDS011;10307;40.100;18.336;2022-12-24T15:23:29;38.92;;;24.95;;
20296;SDS011;10307;40.100;18.336;2022-12-24T15:28:40;36.15;;;21.52;;
20296;SDS011;10307;40.100;18.336;2022-12-24T15:31:09;28.00;;;12.88;;
20296;SDS011;10307;40.100;18.336;2022-12-24T15:33:46;18.65;;;10.75;;
20296;SDS011;10307;40.100;18.336;2022-12-24T15:36:16;22.73;;;12.23;;
20296;SDS011;10307;40.100;18.336;2022-12-24T15:38:51;18.77;;;12.15;;
20296;SDS011;10307;40.100;18.336;2022-12-24T15:41:20;21.65;;;12.70;;
20296;SDS011;10307;40.100;18.336;2022-12-24T15:43:50;26.65;;;13.60;;
20296;SDS011;10307;40.100;18.336;2022-12-24T15:46:19;31.00;;;17.45;;
20296;SDS011;10307;40.100;18.336;2022-12-24T15:48:51;26.10;;;17.45;;
20296;SDS011;10307;40.100;18.336;2022-12-24T15:51:23;40.05;;;21.77;;
20296;SDS011;10307;40.100;18.336;2022-12-24T15:53:59;36.00;;;22.10;;
20296;SDS011;10307;40.100;18.336;2022-12-24T15:56:35;35.60;;;22.25;;
20296;SDS011;10307;40.100;18.336;2022-12-24T16:01:42;46.75;;;29.52;;
20296;SDS011;10307;40.100;18.336;2022-12-24T16:04:13;45.63;;;28.02;;
20296;SDS011;10307;40.100;18.336;2022-12-24T16:09:31;42.60;;;28.88;;
20296;SDS011;10307;40.100;18.336;2022-12-24T16:12:02;47.28;;;29.88;;
20296;SDS011;10307;40.100;18.336;2022-12-24T16:14:29;47.45;;;30.40;;
20296;SDS011;10307;40.100;18.336;2022-12-24T16:16:57;50.90;;;33.30;;
20296;SDS011;10307;40.100;18.336;2022-12-24T16:21:53;57.88;;;35.97;;
20296;SDS011;10307;40.100;18.336;2022-12-24T16:24:26;54.08;;;33.70;;
20296;SDS011;10307;40.100;18.336;2022-12-24T16:26:55;53.13;;;33.58;;
20296;SDS011;10307;40.100;18.336;2022-12-24T16:29:22;74.03;;;46.22;;
20296;SDS011;10307;40.100;18.336;2022-12-24T16:31:49;63.13;;;41.20;;
20296;SDS011;10307;40.100;18.336;2022-12-24T16:34:17;70.85;;;43.17;;
20296;SDS011;10307;40.100;18.336;2022-12-24T16:36:46;60.85;;;37.42;;
20296;SDS011;10307;40.100;18.336;2022-12-24T16:39:15;40.78;;;28.52;;